Old Blue — WDB9712 — position and weather

sailwx.info

Track history (hours):
 
Tides and Currents Weather Stations Pressure Air Temp Water Temp Dewpoint Dewpoint Depression Visibility Wind Speed Wind Dir Waves Ship Positions

Old Blue

Owner: Blue and Gold Fleet, San Francisco, CA. More information available from US FCC via Universal Licensing System and Coast Guard Vessel Documentation Center.

Last reported at 2017-Oct-19 02:23 UTC. Time now 2017-Oct-19 05:30 UTC.
Position N 37°49' W 122°25'.

Length 24 m; draft 3 m.

Type: Passenger vessel. MMSI: 366981360.

Date/timePositionNaut miles runAvg speedWind from/ knotsBaromVisibWave heightAir tempDewpointWater temp
2017-Oct-19 02:23N 37°49' W 122°25'2 4.9
2017-Oct-19 02:00N 37°49' W 122°27'2 3.7
2017-Oct-19 01:30N 37°49' W 122°25'0 0.0
2017-Oct-19 01:00N 37°49' W 122°25'0 0.0
2017-Oct-19 00:30N 37°49' W 122°25'2 4.1
2017-Oct-19 00:00N 37°49' W 122°27'2 4.2
2017-Oct-18 23:30N 37°49' W 122°25'1 1.8
2017-Oct-18 23:00N 37°49' W 122°25'2 3.1
2017-Oct-18 22:30N 37°49' W 122°27'2 4.1
2017-Oct-18 22:00N 37°49' W 122°25'0 0.0
2017-Oct-18 21:30N 37°49' W 122°25'2 3.2
2017-Oct-18 21:00N 37°50' W 122°26'1 2.2
2017-Oct-18 20:30N 37°49' W 122°27'2 3.4
2017-Oct-18 20:00N 37°49' W 122°25'1 2.3
2017-Oct-18 19:30N 37°50' W 122°25'3 5.1
2017-Oct-18 19:00N 37°49' W 122°28'3 6.1
2017-Oct-18 18:30N 37°49' W 122°25'0 0.0
2017-Oct-18 02:26N 37°49' W 122°25'2 5.3
2017-Oct-18 02:00N 37°49' W 122°27'2 4.4
2017-Oct-18 01:30N 37°49' W 122°25'0 0.0
2017-Oct-18 01:00N 37°49' W 122°25'0 0.0
2017-Oct-18 00:30N 37°49' W 122°25'2 4.3
2017-Oct-18 00:00N 37°49' W 122°27'2 4.2
2017-Oct-17 23:30N 37°49' W 122°25'1 1.4
2017-Oct-17 23:00N 37°49' W 122°25'2 5.0
2017-Oct-17 22:30N 37°49' W 122°28'3 5.2
2017-Oct-17 22:00N 37°49' W 122°25'0 0.0
2017-Oct-17 21:30N 37°49' W 122°25'1 1.7
2017-Oct-17 21:00N 37°49' W 122°25'2 4.5
2017-Oct-17 20:30N 37°49' W 122°28'2 4.7
2017-Oct-17 20:00N 37°49' W 122°25'1 1.2
2017-Oct-17 19:30N 37°49' W 122°24'2 4.7
2017-Oct-17 19:00N 37°50' W 122°27'2 4.3
2017-Oct-17 18:30N 37°49' W 122°25'0 0.0
2017-Oct-17 18:00N 37°49' W 122°25'0 0.0
2017-Oct-17 02:44N 37°49' W 122°25'0 1.9
2017-Oct-17 02:30N 37°49' W 122°24'5 9.7
2017-Oct-17 02:00N 37°48' W 122°18'0 0.2
2017-Oct-17 01:30N 37°48' W 122°18'4 8.3
2017-Oct-17 01:00N 37°48' W 122°24'3 6.5
2017-Oct-17 00:31N 37°48' W 122°19'1 2.9
2017-Oct-17 00:00N 37°47' W 122°18'4 8.3
2017-Oct-16 23:30N 37°48' W 122°23'2 3.1
2017-Oct-16 23:00N 37°49' W 122°25'0 0.0
2017-Oct-16 22:30N 37°49' W 122°25'0 0.0
2017-Oct-16 06:39N 37°49' W 122°25'0 0.6
2017-Oct-16 06:31N 37°49' W 122°25'4 8.5
2017-Oct-16 06:00N 37°52' W 122°27'2 4.9
2017-Oct-16 05:31N 37°50' W 122°26'2 3.8
2017-Oct-16 05:01N 37°49' W 122°25'4 8.7
2017-Oct-16 04:31N 37°52' W 122°27'1 2.9
2017-Oct-16 04:01N 37°51' W 122°29'3 6.7
2017-Oct-16 03:30N 37°49' W 122°25'1 1.8
2017-Oct-16 03:00N 37°49' W 122°25'4 7.7
2017-Oct-16 02:31N 37°52' W 122°27'1 1.1
2017-Oct-16 02:01N 37°52' W 122°27'4 8.6
2017-Oct-16 01:31N 37°49' W 122°25'0 0.0
2017-Oct-16 01:01N 37°49' W 122°25'0 0.0
2017-Oct-16 00:31N 37°49' W 122°25'1 2.3
2017-Oct-16 00:00N 37°49' W 122°26'3 6.4
2017-Oct-15 23:31N 37°52' W 122°27'3 6.2
2017-Oct-15 23:01N 37°50' W 122°26'1 0.1
2017-Oct-15 06:42N 37°49' W 122°25'0 1.0
2017-Oct-15 06:31N 37°49' W 122°25'4 8.3
2017-Oct-15 06:00N 37°52' W 122°27'2 4.7
2017-Oct-15 05:30N 37°50' W 122°26'2 3.9
2017-Oct-15 05:00N 37°49' W 122°25'4 8.5
2017-Oct-15 04:30N 37°52' W 122°27'1 3.0
2017-Oct-15 04:00N 37°51' W 122°29'3 6.6
2017-Oct-15 03:30N 37°49' W 122°25'1 1.9
2017-Oct-15 03:00N 37°49' W 122°25'4 7.8
2017-Oct-15 02:30N 37°52' W 122°27'0 0.9
2017-Oct-15 02:01N 37°52' W 122°27'4 8.6
2017-Oct-15 01:30N 37°49' W 122°25'0 0.0
2017-Oct-15 01:00N 37°49' W 122°25'0 0.0
2017-Oct-15 00:30N 37°49' W 122°25'1 2.6
2017-Oct-15 00:00N 37°50' W 122°26'3 6.1
2017-Oct-14 23:30N 37°52' W 122°27'3 5.7
2017-Oct-14 23:00N 37°50' W 122°26'2 3.0
2017-Oct-14 22:30N 37°49' W 122°25'0 0.0
2017-Oct-14 22:00N 37°49' W 122°25'0 0.0
2017-Oct-14 21:30N 37°49' W 122°25'0 0.0
2017-Oct-14 02:53N 37°49' W 122°25'3 7.5
2017-Oct-14 02:30N 37°48' W 122°21'3 7.0
2017-Oct-14 02:00N 37°48' W 122°17'2 4.5
2017-Oct-14 01:31N 37°48' W 122°20'1 1.9
2017-Oct-14 01:00N 37°49' W 122°20'3 5.8
2017-Oct-14 00:31N 37°48' W 122°17'0 0.0
2017-Oct-14 00:00N 37°48' W 122°17'2 3.1
2017-Oct-13 23:30N 37°48' W 122°19'5 9.5
2017-Oct-13 23:01N 37°49' W 122°25'0 0.1
2017-Oct-13 22:30N 37°49' W 122°25'0 0.0
2017-Oct-13 02:47N 37°49' W 122°25'1 2.7
2017-Oct-13 02:31N 37°49' W 122°24'611.0
2017-Oct-13 02:00N 37°48' W 122°17'2 3.2
2017-Oct-13 01:31N 37°48' W 122°19'4 7.1
2017-Oct-13 01:00N 37°48' W 122°24'4 7.7
2017-Oct-13 00:31N 37°48' W 122°19'1 1.7
2017-Oct-13 00:00N 37°47' W 122°18'4 7.2
2017-Oct-12 23:30N 37°48' W 122°22'2 4.2
2017-Oct-12 23:00N 37°49' W 122°25'0 0.2
2017-Oct-12 22:30N 37°49' W 122°25'0 0.0
2017-Oct-12 02:46N 37°49' W 122°25'0 1.0
2017-Oct-12 02:31N 37°49' W 122°25'611.6
2017-Oct-12 02:01N 37°48' W 122°17'1 2.5
2017-Oct-12 01:31N 37°48' W 122°19'4 7.0
2017-Oct-12 01:00N 37°48' W 122°24'5 9.2
2017-Oct-12 00:30N 37°48' W 122°18'0 0.2
2017-Oct-12 00:01N 37°47' W 122°18'4 8.1
2017-Oct-11 23:30N 37°48' W 122°23'1 2.6
2017-Oct-11 22:58N 37°49' W 122°25'0 0.1
2017-Oct-11 22:28N 37°49' W 122°25'0 0.0
2017-Oct-11 21:58N 37°49' W 122°25'  
Track history (hours):
 
Tides and Currents Weather Stations Pressure Air Temp Water Temp Dewpoint Dewpoint Depression Visibility Wind Speed Wind Dir Waves Ship Positions

Old Blue

Owner: Blue and Gold Fleet, San Francisco, CA. More information available from US FCC via Universal Licensing System and Coast Guard Vessel Documentation Center.

Last reported at 2017-Oct-19 02:23 UTC. Time now 2017-Oct-19 05:30 UTC.
Position N 37°49' W 122°25'.

Length 24 m; draft 3 m.

Type: Passenger vessel. MMSI: 366981360.

Date/timePositionNaut miles runAvg speedWind from/ knotsBaromVisibWave heightAir tempDewpointWater temp
2017-Oct-19 02:23N 37°49' W 122°25'2 4.9
2017-Oct-19 02:00N 37°49' W 122°27'2 3.7
2017-Oct-19 01:30N 37°49' W 122°25'0 0.0
2017-Oct-19 01:00N 37°49' W 122°25'0 0.0
2017-Oct-19 00:30N 37°49' W 122°25'2 4.1
2017-Oct-19 00:00N 37°49' W 122°27'2 4.2
2017-Oct-18 23:30N 37°49' W 122°25'1 1.8
2017-Oct-18 23:00N 37°49' W 122°25'2 3.1
2017-Oct-18 22:30N 37°49' W 122°27'2 4.1
2017-Oct-18 22:00N 37°49' W 122°25'0 0.0
2017-Oct-18 21:30N 37°49' W 122°25'2 3.2
2017-Oct-18 21:00N 37°50' W 122°26'1 2.2
2017-Oct-18 20:30N 37°49' W 122°27'2 3.4
2017-Oct-18 20:00N 37°49' W 122°25'1 2.3
2017-Oct-18 19:30N 37°50' W 122°25'3 5.1
2017-Oct-18 19:00N 37°49' W 122°28'3 6.1
2017-Oct-18 18:30N 37°49' W 122°25'0 0.0
2017-Oct-18 02:26N 37°49' W 122°25'2 5.3
2017-Oct-18 02:00N 37°49' W 122°27'2 4.4
2017-Oct-18 01:30N 37°49' W 122°25'0 0.0
2017-Oct-18 01:00N 37°49' W 122°25'0 0.0
2017-Oct-18 00:30N 37°49' W 122°25'2 4.3
2017-Oct-18 00:00N 37°49' W 122°27'2 4.2
2017-Oct-17 23:30N 37°49' W 122°25'1 1.4
2017-Oct-17 23:00N 37°49' W 122°25'2 5.0
2017-Oct-17 22:30N 37°49' W 122°28'3 5.2
2017-Oct-17 22:00N 37°49' W 122°25'0 0.0
2017-Oct-17 21:30N 37°49' W 122°25'1 1.7
2017-Oct-17 21:00N 37°49' W 122°25'2 4.5
2017-Oct-17 20:30N 37°49' W 122°28'2 4.7
2017-Oct-17 20:00N 37°49' W 122°25'1 1.2
2017-Oct-17 19:30N 37°49' W 122°24'2 4.7
2017-Oct-17 19:00N 37°50' W 122°27'2 4.3
2017-Oct-17 18:30N 37°49' W 122°25'0 0.0
2017-Oct-17 18:00N 37°49' W 122°25'0 0.0
2017-Oct-17 02:44N 37°49' W 122°25'0 1.9
2017-Oct-17 02:30N 37°49' W 122°24'5 9.7
2017-Oct-17 02:00N 37°48' W 122°18'0 0.2
2017-Oct-17 01:30N 37°48' W 122°18'4 8.3
2017-Oct-17 01:00N 37°48' W 122°24'3 6.5
2017-Oct-17 00:31N 37°48' W 122°19'1 2.9
2017-Oct-17 00:00N 37°47' W 122°18'4 8.3
2017-Oct-16 23:30N 37°48' W 122°23'2 3.1
2017-Oct-16 23:00N 37°49' W 122°25'0 0.0
2017-Oct-16 22:30N 37°49' W 122°25'0 0.0
2017-Oct-16 06:39N 37°49' W 122°25'0 0.6
2017-Oct-16 06:31N 37°49' W 122°25'4 8.5
2017-Oct-16 06:00N 37°52' W 122°27'2 4.9
2017-Oct-16 05:31N 37°50' W 122°26'2 3.8
2017-Oct-16 05:01N 37°49' W 122°25'4 8.7
2017-Oct-16 04:31N 37°52' W 122°27'1 2.9
2017-Oct-16 04:01N 37°51' W 122°29'3 6.7
2017-Oct-16 03:30N 37°49' W 122°25'1 1.8
2017-Oct-16 03:00N 37°49' W 122°25'4 7.7
2017-Oct-16 02:31N 37°52' W 122°27'1 1.1
2017-Oct-16 02:01N 37°52' W 122°27'4 8.6
2017-Oct-16 01:31N 37°49' W 122°25'0 0.0
2017-Oct-16 01:01N 37°49' W 122°25'0 0.0
2017-Oct-16 00:31N 37°49' W 122°25'1 2.3
2017-Oct-16 00:00N 37°49' W 122°26'3 6.4
2017-Oct-15 23:31N 37°52' W 122°27'3 6.2
2017-Oct-15 23:01N 37°50' W 122°26'1 0.1
2017-Oct-15 06:42N 37°49' W 122°25'0 1.0
2017-Oct-15 06:31N 37°49' W 122°25'4 8.3
2017-Oct-15 06:00N 37°52' W 122°27'2 4.7
2017-Oct-15 05:30N 37°50' W 122°26'2 3.9
2017-Oct-15 05:00N 37°49' W 122°25'4 8.5
2017-Oct-15 04:30N 37°52' W 122°27'1 3.0
2017-Oct-15 04:00N 37°51' W 122°29'3 6.6
2017-Oct-15 03:30N 37°49' W 122°25'1 1.9
2017-Oct-15 03:00N 37°49' W 122°25'4 7.8
2017-Oct-15 02:30N 37°52' W 122°27'0 0.9
2017-Oct-15 02:01N 37°52' W 122°27'4 8.6
2017-Oct-15 01:30N 37°49' W 122°25'0 0.0
2017-Oct-15 01:00N 37°49' W 122°25'0 0.0
2017-Oct-15 00:30N 37°49' W 122°25'1 2.6
2017-Oct-15 00:00N 37°50' W 122°26'3 6.1
2017-Oct-14 23:30N 37°52' W 122°27'3 5.7
2017-Oct-14 23:00N 37°50' W 122°26'2 3.0
2017-Oct-14 22:30N 37°49' W 122°25'0 0.0
2017-Oct-14 22:00N 37°49' W 122°25'0 0.0
2017-Oct-14 21:30N 37°49' W 122°25'0 0.0
2017-Oct-14 02:53N 37°49' W 122°25'3 7.5
2017-Oct-14 02:30N 37°48' W 122°21'3 7.0
2017-Oct-14 02:00N 37°48' W 122°17'2 4.5
2017-Oct-14 01:31N 37°48' W 122°20'1 1.9
2017-Oct-14 01:00N 37°49' W 122°20'3 5.8
2017-Oct-14 00:31N 37°48' W 122°17'0 0.0
2017-Oct-14 00:00N 37°48' W 122°17'2 3.1
2017-Oct-13 23:30N 37°48' W 122°19'5 9.5
2017-Oct-13 23:01N 37°49' W 122°25'0 0.1
2017-Oct-13 22:30N 37°49' W 122°25'0 0.0
2017-Oct-13 02:47N 37°49' W 122°25'1 2.7
2017-Oct-13 02:31N 37°49' W 122°24'611.0
2017-Oct-13 02:00N 37°48' W 122°17'2 3.2
2017-Oct-13 01:31N 37°48' W 122°19'4 7.1
2017-Oct-13 01:00N 37°48' W 122°24'4 7.7
2017-Oct-13 00:31N 37°48' W 122°19'1 1.7
2017-Oct-13 00:00N 37°47' W 122°18'4 7.2
2017-Oct-12 23:30N 37°48' W 122°22'2 4.2
2017-Oct-12 23:00N 37°49' W 122°25'0 0.2
2017-Oct-12 22:30N 37°49' W 122°25'0 0.0
2017-Oct-12 02:46N 37°49' W 122°25'0 1.0
2017-Oct-12 02:31N 37°49' W 122°25'611.6
2017-Oct-12 02:01N 37°48' W 122°17'1 2.5
2017-Oct-12 01:31N 37°48' W 122°19'4 7.0
2017-Oct-12 01:00N 37°48' W 122°24'5 9.2
2017-Oct-12 00:30N 37°48' W 122°18'0 0.2
2017-Oct-12 00:01N 37°47' W 122°18'4 8.1
2017-Oct-11 23:30N 37°48' W 122°23'1 2.6
2017-Oct-11 22:58N 37°49' W 122°25'0 0.1
2017-Oct-11 22:28N 37°49' W 122°25'0 0.0
2017-Oct-11 21:58N 37°49' W 122°25'  

Dump ship's entire track history